Time;durP1;ratioP1;P1;durP2;ratioP2;P2;SDS_P1;SDS_P2;PMS_P1;PMS_P2;Temp;Humidity;BMP_temperature;BMP_pressure;BME280_temperature;BME280_humidity;BME280_pressure;Samples;Min_cycle;Max_cycle;Signal;HPM_P1;HPM_P2
2022/09/09 00:04:34;;;;;;;20.40;11.05;;;;;;;-147.53;100.00;57128.34;10288728;28;20581;-81
2022/09/09 00:10:05;;;;;;;19.90;11.27;;;;;;;-147.53;100.00;57128.34;10273103;28;20042;-80
2022/09/09 00:15:14;;;;;;;;;;;;;;;-147.53;100.00;57128.34;10247869;28;20039;-80
2022/09/09 00:20:24;;;;;;;20.40;11.50;;;;;;;-147.53;100.00;57128.34;10270215;28;19929;-79
2022/09/09 00:25:34;;;;;;;20.67;10.38;;;;;;;-147.53;100.00;57128.34;10274111;28;20054;-81
2022/09/09 00:30:37;;;;;;;20.92;11.38;;;;;;;-147.53;100.00;57128.34;10263424;28;20546;-81
2022/09/09 00:35:43;;;;;;;18.25;11.48;;;;;;;-147.53;100.00;57128.34;10268955;28;20141;-81
2022/09/09 00:41:11;;;;;;;20.33;10.60;;;;;;;-147.53;100.00;57128.34;10273930;28;20399;-80
2022/09/09 00:46:32;;;;;;;21.75;11.63;;;;;;;-147.53;100.00;57128.34;10282811;28;20074;-80
2022/09/09 00:51:47;;;;;;;19.15;11.10;;;;;;;-147.53;100.00;57128.34;10266568;28;20046;-81
2022/09/09 00:57:12;;;;;;;20.40;11.40;;;;;;;-147.53;100.00;57128.34;10274211;28;20047;-81
2022/09/09 01:02:28;;;;;;;18.55;11.52;;;;;;;-147.53;100.00;57128.34;10283009;28;20572;-81
2022/09/09 01:07:31;;;;;;;18.55;10.65;;;;;;;-147.53;100.00;57128.34;10263993;28;20061;-81
2022/09/09 01:12:43;;;;;;;18.90;11.45;;;;;;;-147.53;100.00;57128.34;10262090;28;20046;-82
2022/09/09 01:18:10;;;;;;;23.65;10.93;;;;;;;-147.53;100.00;57128.34;10284115;28;20054;-81
2022/09/09 01:23:38;;;;;;;25.27;11.75;;;;;;;-147.53;100.00;57128.34;10258856;28;20050;-83
2022/09/09 01:28:59;;;;;;;19.35;9.90;;;;;;;-147.53;100.00;57128.34;10271090;28;20042;-82
2022/09/09 01:34:12;;;;;;;17.25;10.35;;;;;;;-147.53;100.00;57128.34;10263414;28;20053;-82
2022/09/09 01:39:14;;;;;;;20.08;10.77;;;;;;;-147.53;100.00;57128.34;10260083;28;20082;-81
2022/09/09 01:44:19;;;;;;;22.02;10.52;;;;;;;-147.53;100.00;57128.34;10267541;28;20141;-81
2022/09/09 01:49:21;;;;;;;16.90;9.80;;;;;;;-147.53;100.00;57128.34;10248948;28;20117;-81
2022/09/09 01:54:27;;;;;;;18.13;10.18;;;;;;;-147.53;100.00;57128.34;10276082;28;20070;-81
2022/09/09 01:59:53;;;;;;;17.40;9.60;;;;;;;-147.53;100.00;57128.34;10279535;28;20047;-82
2022/09/09 02:05:14;;;;;;;16.05;9.88;;;;;;;-147.53;100.00;57128.34;10265350;28;20465;-82
2022/09/09 02:10:19;;;;;;;;;;;;;;;-147.53;100.00;57128.34;10265831;28;20065;-81
2022/09/09 02:15:37;;;;;;;16.98;9.70;;;;;;;-147.53;100.00;57128.34;10253490;28;19926;-80
2022/09/09 02:20:39;;;;;;;18.17;10.85;;;;;;;-147.53;100.00;57128.34;10284384;28;20373;-80
2022/09/09 02:25:41;;;;;;;17.17;10.10;;;;;;;-147.53;100.00;57128.34;10284498;28;20118;-81
2022/09/09 02:30:55;;;;;;;22.23;10.05;;;;;;;-147.53;100.00;57128.34;10272481;28;20476;-81
2022/09/09 02:36:06;;;;;;;19.00;10.13;;;;;;;-147.53;100.00;57128.34;10283916;28;20074;-79
2022/09/09 02:41:08;;;;;;;17.20;9.63;;;;;;;-147.53;100.00;57128.34;10266590;28;20082;-81
2022/09/09 02:46:22;;;;;;;16.65;9.73;;;;;;;-147.53;100.00;57128.34;10274099;28;20683;-81
2022/09/09 02:51:43;;;;;;;15.57;9.23;;;;;;;-147.53;100.00;57128.34;10269220;28;20561;-81
2022/09/09 02:56:56;;;;;;;16.25;9.43;;;;;;;-147.53;100.00;57128.34;10289020;28;20046;-81
2022/09/09 03:02:09;;;;;;;18.63;9.13;;;;;;;-147.53;100.00;57128.34;10263802;28;20066;-82
2022/09/09 03:07:12;;;;;;;13.23;8.10;;;;;;;-147.53;100.00;57128.34;10275762;28;20047;-82
2022/09/09 03:12:16;;;;;;;17.98;8.93;;;;;;;-147.53;100.00;57128.34;10278025;28;20075;-82
2022/09/09 03:17:17;;;;;;;17.23;8.50;;;;;;;-147.53;100.00;57128.34;10258015;28;20139;-83
2022/09/09 03:22:25;;;;;;;14.48;8.65;;;;;;;-147.53;100.00;57128.34;10257972;28;20051;-83
2022/09/09 03:27:29;;;;;;;17.67;8.70;;;;;;;-147.53;100.00;57128.34;10256805;28;20089;-82
2022/09/09 03:32:32;;;;;;;14.23;8.70;;;;;;;-147.53;100.00;57128.34;10268337;28;20042;-82
2022/09/09 03:37:33;;;;;;;15.65;8.30;;;;;;;-147.53;100.00;57128.34;10257761;28;20564;-82
2022/09/09 03:42:36;;;;;;;14.70;9.10;;;;;;;-147.53;100.00;57128.34;10261694;28;20043;-83
2022/09/09 03:47:38;;;;;;;21.95;8.85;;;;;;;-147.53;100.00;57128.34;10263418;28;20050;-81
2022/09/09 03:52:42;;;;;;;20.80;8.68;;;;;;;-147.53;100.00;57128.34;10262814;28;20097;-82
2022/09/09 03:57:50;;;;;;;17.25;8.57;;;;;;;-147.53;100.00;57128.34;10251547;28;20049;-82
2022/09/09 04:02:55;;;;;;;20.73;8.68;;;;;;;-147.53;100.00;57128.34;10258258;28;20129;-81
2022/09/09 04:07:57;;;;;;;14.18;8.20;;;;;;;-147.53;100.00;57128.34;10259096;28;20157;-82
2022/09/09 04:12:59;;;;;;;13.55;6.93;;;;;;;-147.53;100.00;57128.34;10253105;28;20054;-82
2022/09/09 04:18:01;;;;;;;19.55;7.68;;;;;;;-147.53;100.00;57128.34;10249145;28;20473;-83
2022/09/09 04:23:03;;;;;;;14.85;7.00;;;;;;;-147.53;100.00;57128.34;10269979;28;20057;-83
2022/09/09 04:28:05;;;;;;;14.27;7.03;;;;;;;-147.53;100.00;57128.34;10249914;28;20043;-82
2022/09/09 04:33:07;;;;;;;16.45;7.57;;;;;;;-147.53;100.00;57128.34;10274334;28;20055;-82
2022/09/09 04:38:09;;;;;;;14.73;7.63;;;;;;;-147.53;100.00;57128.34;10238254;28;20070;-82
2022/09/09 04:43:11;;;;;;;13.75;6.90;;;;;;;-147.53;100.00;57128.34;10257079;28;20220;-83
2022/09/09 04:48:17;;;;;;;12.45;6.95;;;;;;;-147.53;100.00;57128.34;10251706;28;20598;-82
2022/09/09 04:53:18;;;;;;;12.98;6.30;;;;;;;-147.53;100.00;57128.34;10251751;28;20645;-84
2022/09/09 04:58:22;;;;;;;16.38;7.30;;;;;;;-147.53;100.00;57128.34;10247712;28;20624;-82
2022/09/09 05:03:24;;;;;;;13.10;6.47;;;;;;;-147.53;100.00;57128.34;10235369;28;20047;-83
2022/09/09 05:08:25;;;;;;;19.38;6.75;;;;;;;-147.53;100.00;57128.34;10262430;28;20046;-81
2022/09/09 05:13:28;;;;;;;16.10;6.90;;;;;;;-147.53;100.00;57128.34;10255131;28;20055;-81
2022/09/09 05:18:29;;;;;;;15.38;6.43;;;;;;;-147.53;100.00;57128.34;10263334;28;20043;-82
2022/09/09 05:23:31;;;;;;;13.45;6.15;;;;;;;-147.53;100.00;57128.34;10271264;28;20078;-82
2022/09/09 05:28:35;;;;;;;12.48;7.00;;;;;;;-147.53;100.00;57128.34;10243253;28;20879;-82
2022/09/09 05:33:40;;;;;;;12.90;6.38;;;;;;;-147.53;100.00;57128.34;10241346;28;20038;-83
2022/09/09 05:38:43;;;;;;;12.70;6.57;;;;;;;-147.53;100.00;57128.34;10259916;28;20648;-82
2022/09/09 05:43:47;;;;;;;12.55;6.72;;;;;;;-147.53;100.00;57128.34;10251311;28;20074;-80
2022/09/09 05:48:51;;;;;;;13.82;6.85;;;;;;;-147.53;100.00;57128.34;10265032;28;20054;-81
2022/09/09 05:53:55;;;;;;;15.15;6.82;;;;;;;-147.53;100.00;57128.34;10260618;28;20044;-82
2022/09/09 05:58:59;;;;;;;16.23;8.45;;;;;;;-147.53;100.00;57128.34;10253852;28;20042;-82
2022/09/09 06:04:02;;;;;;;15.35;6.78;;;;;;;-147.53;100.00;57128.34;10252284;28;20738;-82
2022/09/09 06:09:09;;;;;;;13.57;6.35;;;;;;;-147.53;100.00;57128.34;10256211;28;20059;-82
2022/09/09 06:14:12;;;;;;;13.18;6.43;;;;;;;-147.53;100.00;57128.34;10270179;28;20038;-81
2022/09/09 06:19:14;;;;;;;12.05;6.60;;;;;;;-147.53;100.00;57128.34;10259296;28;20066;-83
2022/09/09 06:24:19;;;;;;;14.70;6.50;;;;;;;-147.53;100.00;57128.34;10252560;28;20041;-81
2022/09/09 06:29:20;;;;;;;14.13;6.93;;;;;;;-147.53;100.00;57128.34;10275840;28;20198;-83
2022/09/09 06:34:22;;;;;;;14.13;6.45;;;;;;;-147.53;100.00;57128.34;10275910;28;20038;-81
2022/09/09 06:39:28;;;;;;;16.70;7.03;;;;;;;-147.53;100.00;57128.34;10262108;28;20505;-82
2022/09/09 06:44:33;;;;;;;13.45;6.45;;;;;;;-147.53;100.00;57128.34;10251892;28;20168;-83
2022/09/09 06:49:37;;;;;;;12.05;6.10;;;;;;;-147.53;100.00;57128.34;10253852;28;20061;-82
2022/09/09 06:54:42;;;;;;;14.70;6.38;;;;;;;-147.53;100.00;57128.34;10266826;28;20150;-81
2022/09/09 06:59:44;;;;;;;10.30;5.57;;;;;;;-147.53;100.00;57128.34;10258483;28;20047;-82
2022/09/09 07:04:46;;;;;;;15.07;5.07;;;;;;;-147.53;100.00;57128.34;10259495;28;20522;-81
2022/09/09 07:09:49;;;;;;;12.68;5.30;;;;;;;-147.53;100.00;57128.34;10252344;28;20055;-79
2022/09/09 07:14:50;;;;;;;8.48;4.18;;;;;;;-147.53;100.00;57128.34;10248332;28;21269;-80
2022/09/09 07:20:11;;;;;;;;;;;;;;;-147.53;100.00;57128.34;10280760;28;20427;-80
2022/09/09 07:25:14;;;;;;;8.85;5.00;;;;;;;-147.53;100.00;57128.34;10239606;28;20294;-80
2022/09/09 07:30:16;;;;;;;11.80;5.18;;;;;;;-147.53;100.00;57128.34;10243866;28;20039;-79
2022/09/09 07:35:26;;;;;;;9.13;4.57;;;;;;;-147.53;100.00;57128.34;10263772;28;20050;-79
2022/09/09 07:40:30;;;;;;;15.32;5.03;;;;;;;-147.53;100.00;57128.34;10255237;28;20034;-80
2022/09/09 07:45:34;;;;;;;13.55;5.03;;;;;;;-147.53;100.00;57128.34;10258946;28;20042;-80
2022/09/09 07:50:36;;;;;;;10.85;4.80;;;;;;;-147.53;100.00;57128.34;10267650;28;20081;-79
2022/09/09 07:55:38;;;;;;;10.32;4.53;;;;;;;-147.53;100.00;57128.34;10254798;28;20159;-79
2022/09/09 08:00:43;;;;;;;9.60;4.10;;;;;;;-147.53;100.00;57128.34;10280092;28;20038;-78
2022/09/09 08:05:45;;;;;;;9.77;4.20;;;;;;;-147.53;100.00;57128.34;10249716;28;20119;-80
2022/09/09 08:10:46;;;;;;;10.38;4.18;;;;;;;-147.53;100.00;57128.34;10258150;28;20157;-78
2022/09/09 08:15:50;;;;;;;12.73;3.78;;;;;;;-147.53;100.00;57128.34;10242475;28;20173;-77
2022/09/09 08:20:53;;;;;;;6.65;3.35;;;;;;;-147.53;100.00;57128.34;10242603;28;20066;-79
2022/09/09 08:25:54;;;;;;;8.20;3.28;;;;;;;-147.53;100.00;57128.34;10232904;28;20043;-78
2022/09/09 08:31:04;;;;;;;8.93;3.35;;;;;;;-147.53;100.00;57128.34;10264922;28;20043;-77
2022/09/09 08:36:07;;;;;;;5.90;2.83;;;;;;;-147.53;100.00;57128.34;10240124;28;20284;-79
2022/09/09 08:41:39;;;;;;;6.45;2.47;;;;;;;-147.53;100.00;57128.34;10255016;28;20074;-78
2022/09/09 08:46:57;;;;;;;8.13;2.60;;;;;;;-147.53;100.00;57128.34;10254006;28;20043;-78
2022/09/09 08:51:59;;;;;;;8.35;2.75;;;;;;;-147.53;100.00;57128.34;10266578;28;20675;-75
2022/09/09 08:57:01;;;;;;;6.32;3.00;;;;;;;-147.53;100.00;57128.34;10273052;28;20055;-77
2022/09/09 09:02:42;;;;;;;8.52;2.47;;;;;;;-147.53;100.00;57128.34;10286411;28;20513;-78
2022/09/09 09:07:52;;;;;;;;;;;;;;;-147.53;100.00;57128.34;10267549;28;20093;-78
2022/09/09 09:12:58;;;;;;;6.15;2.70;;;;;;;-147.53;100.00;57128.34;10256687;28;19922;-78
2022/09/09 09:17:59;;;;;;;9.05;2.53;;;;;;;-147.53;100.00;57128.34;10264848;28;20050;-78
2022/09/09 09:23:04;;;;;;;8.18;2.03;;;;;;;-147.53;100.00;57128.34;10229398;28;20101;-78
2022/09/09 09:28:25;;;;;;;8.35;2.75;;;;;;;-147.53;100.00;57128.34;10224692;28;20046;-78
2022/09/09 09:34:02;;;;;;;5.65;2.03;;;;;;;-147.53;100.00;57128.34;10256334;28;20113;-78
2022/09/09 09:39:05;;;;;;;8.80;2.40;;;;;;;-147.53;100.00;57128.34;10237623;28;20043;-77
2022/09/09 09:44:32;;;;;;;7.30;2.10;;;;;;;-147.53;100.00;57128.34;10237988;28;20039;-78
2022/09/09 09:50:00;;;;;;;6.35;2.10;;;;;;;-147.53;100.00;57128.34;10248831;28;20043;-78
2022/09/09 09:55:13;;;;;;;5.25;2.00;;;;;;;-147.53;100.00;57128.34;10260308;28;20043;-78
2022/09/09 10:00:22;;;;;;;5.28;2.00;;;;;;;-147.53;100.00;57128.34;10231391;28;20050;-77
2022/09/09 10:05:45;;;;;;;6.65;1.80;;;;;;;-147.53;100.00;57128.34;10249389;28;20045;-78
2022/09/09 10:10:57;;;;;;;6.57;2.03;;;;;;;-147.53;100.00;57128.34;10260950;28;20046;-81
2022/09/09 10:16:31;;;;;;;10.80;2.40;;;;;;;-147.53;100.00;57128.34;10261872;28;20034;-80
2022/09/09 10:22:28;;;;;;;4.80;2.20;;;;;;;-147.53;100.00;57128.34;10273151;28;20046;-80
2022/09/09 10:27:35;;;;;;;9.43;2.53;;;;;;;-147.53;100.00;57128.34;10104806;29;20041;-80
2022/09/09 10:32:45;;;;;;;8.90;2.38;;;;;;;-147.53;100.00;57128.34;10246376;28;20051;-80
2022/09/09 10:38:03;;;;;;;6.90;2.00;;;;;;;-147.53;100.00;57128.34;10270479;28;20043;-80
2022/09/09 10:43:21;;;;;;;9.23;2.05;;;;;;;-147.53;100.00;57128.34;10261367;28;20039;-79
2022/09/09 10:48:59;;;;;;;7.13;2.00;;;;;;;-147.53;100.00;57128.34;10263911;28;22007;-79
2022/09/09 10:54:25;;;;;;;6.63;2.25;;;;;;;-147.53;100.00;57128.34;10263679;28;20039;-79
2022/09/09 10:59:34;;;;;;;7.18;2.25;;;;;;;-147.53;100.00;57128.34;10242424;28;20043;-79
2022/09/09 11:04:44;;;;;;;7.75;2.13;;;;;;;-147.53;100.00;57128.34;10268810;28;20077;-80
2022/09/09 11:09:53;;;;;;;10.18;2.78;;;;;;;-147.53;100.00;57128.34;10270797;28;20736;-81
2022/09/09 11:15:14;;;;;;;10.25;3.13;;;;;;;-147.53;100.00;57128.34;10252517;28;20062;-84
2022/09/09 11:20:16;;;;;;;10.80;2.92;;;;;;;-147.53;100.00;57128.34;10275205;28;20113;-83
2022/09/09 11:25:22;;;;;;;9.82;2.97;;;;;;;-147.53;100.00;57128.34;10290461;28;20113;-83
2022/09/09 11:30:55;;;;;;;11.55;3.20;;;;;;;-147.53;100.00;57128.34;10284030;28;20038;-82
2022/09/09 11:36:43;;;;;;;8.40;2.72;;;;;;;-147.53;100.00;57128.34;10262825;28;20568;-82
2022/09/09 11:41:44;;;;;;;7.75;2.33;;;;;;;-147.53;100.00;57128.34;10276452;28;20038;-82
2022/09/09 11:46:51;;;;;;;10.32;3.15;;;;;;;-147.53;100.00;57128.34;10286227;28;20442;-81
2022/09/09 11:51:54;;;;;;;15.73;2.80;;;;;;;-147.53;100.00;57128.34;10281317;28;20058;-83
2022/09/09 11:56:56;;;;;;;9.52;3.10;;;;;;;-147.53;100.00;57128.34;10274918;28;20065;-77
2022/09/09 12:02:06;;;;;;;14.90;3.72;;;;;;;-147.53;100.00;57128.34;10263777;28;20050;-80
2022/09/09 12:07:08;;;;;;;7.85;3.30;;;;;;;-147.53;100.00;57128.34;10271112;28;20053;-81
2022/09/09 12:12:13;;;;;;;14.38;3.42;;;;;;;-147.53;100.00;57128.34;10283426;28;20050;-84
2022/09/09 12:17:14;;;;;;;15.30;4.50;;;;;;;-147.53;100.00;57128.34;10279221;28;20050;-84
2022/09/09 12:22:35;;;;;;;10.93;3.38;;;;;;;-147.53;100.00;57128.34;10267835;28;20487;-84
2022/09/09 12:27:51;;;;;;;7.95;3.20;;;;;;;-147.53;100.00;57128.34;10277532;28;20406;-84
2022/09/09 12:33:11;;;;;;;12.63;3.65;;;;;;;-147.53;100.00;57128.34;10271803;28;20158;-84
2022/09/09 12:38:20;;;;;;;12.40;4.57;;;;;;;-147.53;100.00;57128.34;10269422;28;20065;-83
2022/09/09 12:43:24;;;;;;;10.65;3.88;;;;;;;-147.53;100.00;57128.34;10269468;28;20042;-83
2022/09/09 12:48:36;;;;;;;8.25;4.10;;;;;;;-147.53;100.00;57128.34;10266623;28;20043;-83
2022/09/09 12:53:39;;;;;;;12.18;3.92;;;;;;;-147.53;100.00;57128.34;10269400;28;20046;-84
2022/09/09 12:58:47;;;;;;;19.05;4.22;;;;;;;-147.53;100.00;57128.34;10268746;28;20399;-84
2022/09/09 13:03:49;;;;;;;10.25;4.05;;;;;;;-147.53;100.00;57128.34;10267903;28;20090;-83
2022/09/09 13:08:53;;;;;;;11.52;4.30;;;;;;;-147.53;100.00;57128.34;10274659;28;20042;-83
2022/09/09 13:13:57;;;;;;;13.55;4.57;;;;;;;-147.53;100.00;57128.34;10269960;28;20047;-83
2022/09/09 13:19:08;;;;;;;12.57;4.60;;;;;;;-147.53;100.00;57128.34;10277061;28;20525;-82
2022/09/09 13:24:32;;;;;;;14.38;4.53;;;;;;;-147.53;100.00;57128.34;10263853;28;20074;-82
2022/09/09 13:29:34;;;;;;;10.13;4.55;;;;;;;-147.53;100.00;57128.34;10273748;28;20043;-83
2022/09/09 13:34:36;;;;;;;12.45;4.30;;;;;;;-147.53;100.00;57128.34;10260313;28;20050;-81
2022/09/09 13:39:37;;;;;;;10.35;4.15;;;;;;;-147.53;100.00;57128.34;10287154;28;20043;-82
2022/09/09 13:44:41;;;;;;;9.13;3.75;;;;;;;-147.53;100.00;57128.34;10277243;28;20050;-82
2022/09/09 13:49:43;;;;;;;7.13;2.85;;;;;;;-147.53;100.00;57128.34;10274866;28;20038;-81
2022/09/09 13:54:52;;;;;;;9.20;3.60;;;;;;;-147.53;100.00;57128.34;10256552;28;20042;-83
2022/09/09 13:59:56;;;;;;;7.93;2.83;;;;;;;-147.53;100.00;57128.34;10257224;28;20058;-81
2022/09/09 14:05:06;;;;;;;5.57;2.70;;;;;;;-147.53;100.00;57128.34;10270513;28;20049;-83
2022/09/09 14:10:09;;;;;;;9.73;2.90;;;;;;;-147.53;100.00;57128.34;10269056;28;20883;-81
2022/09/09 14:15:12;;;;;;;7.85;3.38;;;;;;;-147.53;100.00;57128.34;10286801;28;20043;-80
2022/09/09 14:20:15;;;;;;;5.13;2.90;;;;;;;-147.53;100.00;57128.34;10283251;28;20773;-81
2022/09/09 14:25:17;;;;;;;10.25;2.75;;;;;;;-147.53;100.00;57128.34;10286894;28;20126;-81
2022/09/09 14:30:18;;;;;;;5.85;2.92;;;;;;;-147.53;100.00;57128.34;10283580;28;22708;-83
2022/09/09 14:35:20;;;;;;;11.10;2.92;;;;;;;-147.53;100.00;57128.34;10287531;28;20066;-78
2022/09/09 14:40:22;;;;;;;8.65;2.97;;;;;;;-147.53;100.00;57128.34;10296709;28;20057;-79
2022/09/09 14:45:24;;;;;;;7.75;2.80;;;;;;;-147.53;100.00;57128.34;10289490;28;20052;-78
2022/09/09 14:50:26;;;;;;;6.20;2.88;;;;;;;-147.53;100.00;57128.34;10291404;28;20042;-78
2022/09/09 14:55:29;;;;;;;6.25;3.03;;;;;;;-147.53;100.00;57128.34;10284635;28;20046;-79
2022/09/09 15:00:30;;;;;;;7.22;2.80;;;;;;;-147.53;100.00;57128.34;10285755;28;20039;-80
2022/09/09 15:05:32;;;;;;;9.40;2.63;;;;;;;-147.53;100.00;57128.34;10265721;28;20051;-78
2022/09/09 15:10:34;;;;;;;11.68;3.10;;;;;;;-147.53;100.00;57128.34;10278751;28;20053;-80
2022/09/09 15:15:36;;;;;;;8.80;2.67;;;;;;;-147.53;100.00;57128.34;10266171;28;20035;-80
2022/09/09 15:20:38;;;;;;;4.57;1.92;;;;;;;-147.53;100.00;57128.34;10281701;28;20055;-80
2022/09/09 15:25:54;;;;;;;4.43;1.90;;;;;;;-147.53;100.00;57128.34;10269137;28;20038;-80
2022/09/09 15:30:56;;;;;;;3.30;1.40;;;;;;;-147.53;100.00;57128.34;10275437;28;20053;-78
2022/09/09 15:35:58;;;;;;;3.88;1.58;;;;;;;-147.53;100.00;57128.34;10285245;28;20737;-78
2022/09/09 15:41:00;;;;;;;5.80;1.70;;;;;;;-147.53;100.00;57128.34;10258429;28;20047;-76
2022/09/09 15:46:32;;;;;;;3.13;1.40;;;;;;;-147.53;100.00;57128.34;10253126;28;20655;-77
2022/09/09 15:51:33;;;;;;;6.07;2.13;;;;;;;-147.53;100.00;57128.34;10260081;28;20043;-77
2022/09/09 15:56:46;;;;;;;3.20;1.80;;;;;;;-147.53;100.00;57128.34;10277928;28;20046;-82
2022/09/09 16:01:50;;;;;;;5.10;2.17;;;;;;;-147.53;100.00;57128.34;10271546;28;20582;-77
2022/09/09 16:06:55;;;;;;;4.13;2.08;;;;;;;-147.53;100.00;57128.34;10269672;28;20486;-79
2022/09/09 16:11:58;;;;;;;5.18;2.58;;;;;;;-147.53;100.00;57128.34;10278704;28;20058;-78
2022/09/09 16:17:00;;;;;;;6.43;2.00;;;;;;;-147.53;100.00;57128.34;10275754;28;20051;-77
2022/09/09 16:22:04;;;;;;;6.30;2.40;;;;;;;-147.53;100.00;57128.34;10278912;28;20047;-78
2022/09/09 16:27:06;;;;;;;8.77;2.13;;;;;;;-147.53;100.00;57128.34;10274725;28;20050;-78
2022/09/09 16:32:08;;;;;;;6.10;2.25;;;;;;;-147.53;100.00;57128.34;10269475;28;20504;-78
2022/09/09 16:37:11;;;;;;;6.22;2.20;;;;;;;-147.53;100.00;57128.34;10268049;28;20046;-78
2022/09/09 16:42:12;;;;;;;9.30;2.15;;;;;;;-147.53;100.00;57128.34;10269361;28;20061;-78
2022/09/09 16:47:14;;;;;;;6.82;2.30;;;;;;;-147.53;100.00;57128.34;10255906;28;20038;-78
2022/09/09 16:52:15;;;;;;;6.93;3.05;;;;;;;-147.53;100.00;57128.34;10270580;28;20054;-78
2022/09/09 16:57:21;;;;;;;9.93;2.67;;;;;;;-147.53;100.00;57128.34;10278953;28;20520;-78
2022/09/09 17:02:24;;;;;;;4.80;2.47;;;;;;;-147.53;100.00;57128.34;10269459;28;20046;-79
2022/09/09 17:07:25;;;;;;;12.27;3.58;;;;;;;-147.53;100.00;57128.34;10274011;28;20050;-78
2022/09/09 17:12:27;;;;;;;6.95;2.88;;;;;;;-147.53;100.00;57128.34;10263621;28;20047;-78
2022/09/09 17:17:29;;;;;;;5.97;2.15;;;;;;;-147.53;100.00;57128.34;10260513;28;20045;-77
2022/09/09 17:22:32;;;;;;;7.05;2.80;;;;;;;-147.53;100.00;57128.34;10268815;28;20514;-78
2022/09/09 17:27:34;;;;;;;4.30;2.08;;;;;;;-147.53;100.00;57128.34;10267652;28;20195;-77
2022/09/09 17:32:36;;;;;;;8.95;2.72;;;;;;;-147.53;100.00;57128.34;10271091;28;21007;-76
2022/09/09 17:37:37;;;;;;;8.10;2.80;;;;;;;-147.53;100.00;57128.34;10271365;28;20043;-76
2022/09/09 17:42:40;;;;;;;5.55;2.65;;;;;;;-147.53;100.00;57128.34;10261215;28;20062;-76
2022/09/09 17:47:42;;;;;;;5.15;2.47;;;;;;;-147.53;100.00;57128.34;10269419;28;20042;-78
2022/09/09 17:52:44;;;;;;;5.00;2.08;;;;;;;-147.53;100.00;57128.34;10287685;28;20557;-78
2022/09/09 17:57:45;;;;;;;7.15;1.95;;;;;;;-147.53;100.00;57128.34;10251595;28;20036;-78
2022/09/09 18:02:47;;;;;;;6.53;2.03;;;;;;;-147.53;100.00;57128.34;10285739;28;20540;-79
2022/09/09 18:07:49;;;;;;;5.97;1.90;;;;;;;-147.53;100.00;57128.34;10271868;28;20142;-78
2022/09/09 18:12:50;;;;;;;7.40;2.20;;;;;;;-147.53;100.00;57128.34;10272224;28;20047;-79
2022/09/09 18:17:52;;;;;;;5.82;2.60;;;;;;;-147.53;100.00;57128.34;10281003;28;20043;-79
2022/09/09 18:22:53;;;;;;;6.60;2.50;;;;;;;-147.53;100.00;57128.34;10262350;28;20066;-79
2022/09/09 18:27:55;;;;;;;5.25;2.05;;;;;;;-147.53;100.00;57128.34;10273933;28;20057;-79
2022/09/09 18:32:57;;;;;;;6.22;2.20;;;;;;;-147.53;100.00;57128.34;10275851;28;20439;-79
2022/09/09 18:37:58;;;;;;;4.30;2.17;;;;;;;-147.53;100.00;57128.34;10274072;28;20491;-79
2022/09/09 18:43:00;;;;;;;4.40;2.05;;;;;;;-147.53;100.00;57128.34;10291321;28;20637;-81
2022/09/09 18:48:02;;;;;;;3.45;2.10;;;;;;;-147.53;100.00;57128.34;10288553;28;20765;-79
2022/09/09 18:53:03;;;;;;;5.45;2.05;;;;;;;-147.53;100.00;57128.34;10285225;28;20050;-80
2022/09/09 18:58:05;;;;;;;3.80;2.00;;;;;;;-147.53;100.00;57128.34;10262252;28;20044;-80
2022/09/09 19:03:06;;;;;;;7.60;2.33;;;;;;;-147.53;100.00;57128.34;10287610;28;20069;-80
2022/09/09 19:08:08;;;;;;;3.88;2.30;;;;;;;-147.53;100.00;57128.34;10262200;28;20043;-80
2022/09/09 19:13:10;;;;;;;3.60;2.15;;;;;;;-147.53;100.00;57128.34;10263785;28;20046;-79
2022/09/09 19:18:11;;;;;;;4.35;2.20;;;;;;;-147.53;100.00;57128.34;10294335;28;20712;-79
2022/09/09 19:23:13;;;;;;;5.90;2.40;;;;;;;-147.53;100.00;57128.34;10284442;28;20051;-81
2022/09/09 19:28:14;;;;;;;5.47;2.58;;;;;;;-147.53;100.00;57128.34;10266613;28;20058;-80
2022/09/09 19:33:16;;;;;;;7.35;2.47;;;;;;;-147.53;100.00;57128.34;10267861;28;20062;-80
2022/09/09 19:38:17;;;;;;;5.05;2.85;;;;;;;-147.53;100.00;57128.34;10272846;28;20388;-79
2022/09/09 19:43:19;;;;;;;6.78;3.00;;;;;;;-147.53;100.00;57128.34;10281274;28;20058;-80
2022/09/09 19:48:21;;;;;;;6.43;3.40;;;;;;;-147.53;100.00;57128.34;10274007;28;20042;-80
2022/09/09 19:53:22;;;;;;;6.57;3.20;;;;;;;-147.53;100.00;57128.34;10274798;28;20582;-79
2022/09/09 19:58:24;;;;;;;6.78;3.03;;;;;;;-147.53;100.00;57128.34;10258965;28;20042;-81
2022/09/09 20:03:25;;;;;;;7.45;3.35;;;;;;;-147.53;100.00;57128.34;10288780;28;20042;-79
2022/09/09 20:08:27;;;;;;;8.88;3.25;;;;;;;-147.53;100.00;57128.34;10284626;28;20050;-79
2022/09/09 20:13:30;;;;;;;6.35;3.55;;;;;;;-147.53;100.00;57128.34;10292121;28;20047;-79
2022/09/09 20:18:35;;;;;;;9.23;3.55;;;;;;;-147.53;100.00;57128.34;10276460;28;20047;-79
2022/09/09 20:23:37;;;;;;;9.43;3.70;;;;;;;-147.53;100.00;57128.34;10280648;28;20100;-80
2022/09/09 20:28:41;;;;;;;8.52;3.75;;;;;;;-147.53;100.00;57128.34;10282057;28;20069;-80
2022/09/09 20:33:43;;;;;;;7.20;3.80;;;;;;;-147.53;100.00;57128.34;10268054;28;20134;-79
2022/09/09 20:38:50;;;;;;;9.20;4.30;;;;;;;-147.53;100.00;57128.34;10278802;28;20109;-79
2022/09/09 20:44:01;;;;;;;6.75;3.75;;;;;;;-147.53;100.00;57128.34;10279978;28;20039;-79
2022/09/09 20:49:05;;;;;;;7.78;4.35;;;;;;;-147.53;100.00;57128.34;10275844;28;20077;-79
2022/09/09 20:54:10;;;;;;;9.52;4.60;;;;;;;-147.53;100.00;57128.34;10283244;28;20047;-79
2022/09/09 20:59:18;;;;;;;9.18;4.63;;;;;;;-147.53;100.00;57128.34;10259724;28;20042;-80
2022/09/09 21:04:22;;;;;;;9.40;4.10;;;;;;;-147.53;100.00;57128.34;10284302;28;20321;-79
2022/09/09 21:09:23;;;;;;;10.27;4.78;;;;;;;-147.53;100.00;57128.34;10263961;28;20047;-79
2022/09/09 21:14:26;;;;;;;9.68;4.70;;;;;;;-147.53;100.00;57128.34;10279379;28;20058;-79
2022/09/09 21:19:28;;;;;;;10.82;4.90;;;;;;;-147.53;100.00;57128.34;10282058;28;20484;-79
2022/09/09 21:24:29;;;;;;;9.63;4.45;;;;;;;-147.53;100.00;57128.34;10292912;28;20599;-79
2022/09/09 21:29:31;;;;;;;12.45;4.63;;;;;;;-147.53;100.00;57128.34;10293009;28;20035;-79
2022/09/09 21:34:33;;;;;;;11.27;4.90;;;;;;;-147.53;100.00;57128.34;10275826;28;20188;-81
2022/09/09 21:39:35;;;;;;;13.93;4.90;;;;;;;-147.53;100.00;57128.34;10290753;28;20043;-79
2022/09/09 21:44:36;;;;;;;10.02;4.47;;;;;;;-147.53;100.00;57128.34;10299259;28;20483;-79
2022/09/09 21:49:38;;;;;;;8.05;4.63;;;;;;;-147.53;100.00;57128.34;10267622;28;20557;-79
2022/09/09 21:54:42;;;;;;;9.02;4.82;;;;;;;-147.53;100.00;57128.34;10293564;28;20594;-80
2022/09/09 21:59:43;;;;;;;9.27;4.88;;;;;;;-147.53;100.00;57128.34;10291198;28;20043;-79
2022/09/09 22:04:45;;;;;;;11.63;5.13;;;;;;;-147.53;100.00;57128.34;10278227;28;20049;-79
2022/09/09 22:09:47;;;;;;;10.65;4.30;;;;;;;-147.53;100.00;57128.34;10283544;28;20517;-79
2022/09/09 22:14:48;;;;;;;9.82;4.97;;;;;;;-147.53;100.00;57128.34;10287430;28;20043;-79
2022/09/09 22:19:50;;;;;;;10.40;5.47;;;;;;;-147.53;100.00;57128.34;10281445;28;20050;-79
2022/09/09 22:24:52;;;;;;;10.85;4.90;;;;;;;-147.53;100.00;57128.34;10291787;28;20039;-79
2022/09/09 22:29:53;;;;;;;12.75;4.68;;;;;;;-147.53;100.00;57128.34;10266668;28;20043;-79
2022/09/09 22:34:55;;;;;;;9.10;4.07;;;;;;;-147.53;100.00;57128.34;10266199;28;20046;-78
2022/09/09 22:39:57;;;;;;;10.65;3.92;;;;;;;-147.53;100.00;57128.34;10287025;28;20410;-79
2022/09/09 22:44:59;;;;;;;7.10;4.03;;;;;;;-147.53;100.00;57128.34;10275409;28;20166;-79
2022/09/09 22:50:01;;;;;;;5.85;3.67;;;;;;;-147.53;100.00;57128.34;10289696;28;20097;-79